Time;durP1;ratioP1;P1;durP2;ratioP2;P2;SDS_P1;SDS_P2;PMS_P1;PMS_P2;Temp;Humidity;BMP_temperature;BMP_pressure;BME280_temperature;BME280_humidity;BME280_pressure;Samples;Min_cycle;Max_cycle;Signal;HPM_P1;HPM_P2
2021/08/26 00:08:22;;;;;;;4.07;2.30;;;19.70;99.90;;;;;;5072130;28;20043;-71
2021/08/26 00:11:26;;;;;;;;;;;19.70;99.90;;;;;;5072307;28;20040;-71
2021/08/26 00:14:30;;;;;;;5.22;2.00;;;19.70;99.90;;;;;;5072102;28;19935;-71
2021/08/26 00:17:35;;;;;;;6.10;2.00;;;19.60;99.90;;;;;;5072103;28;20067;-71
2021/08/26 00:20:39;;;;;;;8.18;2.00;;;19.60;99.90;;;;;;5072095;28;20040;-71
2021/08/26 00:23:43;;;;;;;8.43;2.47;;;19.60;99.90;;;;;;5071792;28;20051;-71
2021/08/26 00:26:47;;;;;;;4.65;2.35;;;19.60;99.90;;;;;;5072004;28;20391;-71
2021/08/26 00:29:52;;;;;;;5.10;2.40;;;19.50;99.90;;;;;;5059350;28;20048;-71
2021/08/26 00:32:56;;;;;;;5.10;2.10;;;19.50;99.90;;;;;;5071348;28;20111;-71
2021/08/26 00:35:59;;;;;;;4.88;2.03;;;19.60;99.90;;;;;;5059508;28;20211;-71
2021/08/26 00:39:03;;;;;;;5.70;2.20;;;19.50;99.90;;;;;;5071740;28;20036;-71
2021/08/26 00:42:08;;;;;;;4.45;2.30;;;19.50;99.90;;;;;;5071174;28;20044;-71
2021/08/26 00:45:12;;;;;;;4.55;2.13;;;19.40;99.90;;;;;;5071840;28;20048;-71
2021/08/26 00:48:20;;;;;;;10.55;2.30;;;19.40;99.90;;;;;;5071454;28;20501;-71
2021/08/26 00:51:24;;;;;;;8.10;2.90;;;19.40;99.90;;;;;;5070913;28;20048;-71
2021/08/26 00:54:28;;;;;;;5.82;2.40;;;19.40;99.90;;;;;;5071404;28;20047;-71
2021/08/26 00:57:33;;;;;;;5.70;2.20;;;19.40;99.90;;;;;;5071294;28;20052;-71
2021/08/26 01:00:40;;;;;;;3.42;1.80;;;19.30;99.90;;;;;;5071353;28;20048;-71
2021/08/26 01:03:58;;;;;;;3.22;1.95;;;19.20;99.90;;;;;;5071576;28;20318;-71
2021/08/26 01:07:06;;;;;;;3.83;2.40;;;19.10;99.90;;;;;;5071122;28;20509;-71
2021/08/26 01:10:17;;;;;;;9.77;2.15;;;19.10;99.90;;;;;;5071135;28;20044;-71
2021/08/26 01:13:22;;;;;;;3.08;2.10;;;19.00;99.90;;;;;;5058788;28;20032;-71
2021/08/26 01:16:26;;;;;;;2.92;2.00;;;19.00;99.90;;;;;;5070816;28;20039;-71
2021/08/26 01:19:39;;;;;;;3.00;1.90;;;18.90;99.90;;;;;;5071174;28;20036;-71
2021/08/26 01:22:43;;;;;;;3.72;1.77;;;18.90;99.90;;;;;;5070599;28;20050;-71
2021/08/26 01:25:50;;;;;;;4.03;1.50;;;18.90;99.90;;;;;;5070693;28;20051;-71
2021/08/26 01:28:58;;;;;;;4.78;2.53;;;18.90;99.90;;;;;;5070676;28;20048;-71
2021/08/26 01:32:02;;;;;;;3.83;2.35;;;18.90;99.90;;;;;;5070365;28;20051;-71
2021/08/26 01:35:07;;;;;;;5.35;2.85;;;18.90;99.90;;;;;;5070607;28;20048;-71
2021/08/26 01:38:23;;;;;;;12.07;2.67;;;18.90;99.90;;;;;;5070402;28;20047;-71
2021/08/26 01:41:55;;;;;;;6.03;1.80;;;18.90;99.90;;;;;;5070305;28;20056;-71
2021/08/26 01:44:59;;;;;;;1.83;1.20;;;18.80;99.90;;;;;;5070565;28;20043;-71
2021/08/26 01:48:03;;;;;;;2.50;1.48;;;18.80;99.90;;;;;;5070408;28;20047;-71
2021/08/26 01:51:08;;;;;;;4.38;1.95;;;18.90;99.90;;;;;;5070362;28;20051;-71
2021/08/26 01:54:12;;;;;;;2.47;1.52;;;18.80;99.90;;;;;;5070444;28;20442;-71
2021/08/26 01:57:17;;;;;;;2.20;1.52;;;18.70;99.90;;;;;;5070401;28;20051;-71
2021/08/26 02:00:22;;;;;;;5.13;2.50;;;18.70;99.90;;;;;;5070185;28;20047;-71
2021/08/26 02:03:26;;;;;;;3.20;1.65;;;18.70;99.90;;;;;;5070172;28;20047;-72
2021/08/26 02:06:31;;;;;;;5.47;2.33;;;18.70;99.90;;;;;;5069468;28;20482;-71
2021/08/26 02:09:36;;;;;;;6.15;2.17;;;18.60;99.90;;;;;;5070024;28;20036;-71
2021/08/26 02:12:40;;;;;;;4.93;2.17;;;18.50;99.90;;;;;;5057961;28;20317;-71
2021/08/26 02:15:44;;;;;;;6.63;1.90;;;18.50;99.90;;;;;;5057692;28;20403;-71
2021/08/26 02:18:47;;;;;;;3.15;1.77;;;18.40;99.90;;;;;;5070665;28;20494;-71
2021/08/26 02:21:52;;;;;;;5.00;2.22;;;18.50;99.90;;;;;;5070183;28;20431;-71
2021/08/26 02:24:56;;;;;;;4.75;2.17;;;18.50;99.90;;;;;;5070269;28;20051;-71
2021/08/26 02:28:00;;;;;;;3.08;1.92;;;18.40;99.90;;;;;;5057533;28;20048;-71
2021/08/26 02:31:04;;;;;;;6.00;1.95;;;18.30;99.90;;;;;;5069709;28;20051;-71
2021/08/26 02:34:08;;;;;;;8.07;1.83;;;18.30;99.90;;;;;;5070111;28;20048;-71
2021/08/26 02:37:12;;;;;;;6.15;2.47;;;18.20;99.90;;;;;;5069960;28;20494;-71
2021/08/26 02:40:16;;;;;;;6.10;2.15;;;18.20;99.90;;;;;;5069838;28;20067;-71
2021/08/26 02:43:20;;;;;;;4.78;1.98;;;18.20;99.90;;;;;;5069849;28;20044;-71
2021/08/26 02:46:24;;;;;;;7.68;2.08;;;18.20;99.90;;;;;;5069780;28;20040;-71
2021/08/26 02:49:28;;;;;;;6.60;2.33;;;18.20;99.90;;;;;;5069901;28;20042;-71
2021/08/26 02:52:32;;;;;;;4.38;2.17;;;18.10;99.90;;;;;;5069494;28;20445;-71
2021/08/26 02:55:36;;;;;;;8.48;2.80;;;18.10;99.90;;;;;;5070120;28;20046;-71
2021/08/26 02:58:40;;;;;;;5.88;2.20;;;18.20;99.90;;;;;;5069737;28;20055;-71
2021/08/26 03:01:44;;;;;;;9.32;1.90;;;18.20;99.90;;;;;;5069404;28;20103;-71
2021/08/26 03:04:48;;;;;;;4.53;2.00;;;18.10;99.90;;;;;;5069516;28;20043;-71
2021/08/26 03:07:54;;;;;;;3.88;2.00;;;18.10;99.90;;;;;;5069936;28;20040;-71
2021/08/26 03:10:59;;;;;;;2.60;1.80;;;18.10;99.90;;;;;;5069633;28;20051;-71
2021/08/26 03:14:03;;;;;;;3.42;1.98;;;18.00;99.90;;;;;;5069880;28;20052;-71
2021/08/26 03:17:08;;;;;;;3.15;2.55;;;18.00;99.90;;;;;;5069697;28;20051;-71
2021/08/26 03:20:12;;;;;;;3.17;2.05;;;18.00;99.90;;;;;;5069508;28;20052;-71
2021/08/26 03:23:16;;;;;;;4.95;2.35;;;17.90;99.90;;;;;;5069431;28;20047;-71
2021/08/26 03:26:20;;;;;;;7.70;2.63;;;17.80;99.90;;;;;;5069548;28;20593;-72
2021/08/26 03:29:24;;;;;;;5.20;2.30;;;17.70;99.90;;;;;;5069470;28;20387;-71
2021/08/26 03:32:28;;;;;;;9.35;2.63;;;17.70;99.90;;;;;;5069000;28;20494;-71
2021/08/26 03:35:32;;;;;;;3.83;2.10;;;17.70;99.90;;;;;;5069364;28;20048;-71
2021/08/26 03:38:37;;;;;;;5.13;1.90;;;17.70;99.90;;;;;;5069502;28;20051;-71
2021/08/26 03:41:42;;;;;;;5.13;1.73;;;17.70;99.90;;;;;;5071772;28;20038;-71
2021/08/26 03:44:46;;;;;;;3.90;1.70;;;17.70;99.90;;;;;;5072614;28;20040;-71
2021/08/26 03:47:50;;;;;;;4.72;1.70;;;17.70;99.90;;;;;;5072664;28;20044;-71
2021/08/26 03:50:54;;;;;;;3.67;1.63;;;17.70;99.90;;;;;;5072350;28;20051;-71
2021/08/26 03:53:58;;;;;;;2.25;1.65;;;17.70;99.90;;;;;;5073083;28;20127;-71
2021/08/26 03:57:03;;;;;;;4.82;1.95;;;17.70;99.90;;;;;;5072401;28;20044;-71
2021/08/26 04:00:08;;;;;;;5.40;2.10;;;17.70;99.90;;;;;;5072576;28;20048;-71
2021/08/26 04:03:12;;;;;;;5.97;2.50;;;17.60;99.90;;;;;;5072512;28;20297;-71
2021/08/26 04:06:16;;;;;;;5.15;2.53;;;17.50;99.90;;;;;;5072313;28;20047;-71
2021/08/26 04:09:20;;;;;;;4.28;2.80;;;17.40;99.90;;;;;;5072438;28;20047;-71
2021/08/26 04:12:26;;;;;;;6.22;2.78;;;17.30;99.90;;;;;;5072099;28;20043;-71
2021/08/26 04:15:30;;;;;;;3.67;2.60;;;17.10;99.90;;;;;;5071908;28;20051;-71
2021/08/26 04:18:34;;;;;;;5.97;2.83;;;17.00;99.90;;;;;;5072448;28;20047;-71
2021/08/26 04:21:39;;;;;;;5.85;2.67;;;16.80;99.90;;;;;;5071444;28;20426;-70
2021/08/26 04:24:43;;;;;;;5.32;2.80;;;16.80;99.90;;;;;;5072109;28;20055;-70
2021/08/26 04:27:47;;;;;;;5.40;2.67;;;16.70;99.90;;;;;;5071780;28;20071;-71
2021/08/26 04:30:52;;;;;;;10.93;3.35;;;16.60;99.90;;;;;;5070722;28;20077;-70
2021/08/26 04:33:56;;;;;;;4.93;2.50;;;16.60;99.90;;;;;;5071920;28;20518;-71
2021/08/26 04:37:01;;;;;;;4.32;2.53;;;16.60;99.90;;;;;;5071977;28;20489;-70
2021/08/26 04:40:05;;;;;;;4.88;2.63;;;16.60;99.90;;;;;;5071401;28;20047;-70
2021/08/26 04:43:10;;;;;;;9.93;2.63;;;16.70;99.90;;;;;;5071522;28;20051;-70
2021/08/26 04:46:14;;;;;;;7.18;2.38;;;16.70;99.90;;;;;;5059040;28;20410;-70
2021/08/26 04:49:18;;;;;;;5.00;2.35;;;16.80;99.90;;;;;;5071627;28;20043;-70
2021/08/26 04:52:22;;;;;;;9.57;2.08;;;16.90;99.90;;;;;;5071163;28;20043;-70
2021/08/26 04:55:26;;;;;;;4.00;2.22;;;17.00;99.90;;;;;;5071362;28;20051;-70
2021/08/26 04:58:30;;;;;;;3.55;2.00;;;17.00;99.90;;;;;;5071553;28;20394;-70
2021/08/26 05:01:34;;;;;;;6.40;2.15;;;17.10;99.90;;;;;;5070975;28;20052;-70
2021/08/26 05:04:39;;;;;;;8.13;2.95;;;17.20;99.90;;;;;;5071446;28;20065;-71
2021/08/26 05:07:43;;;;;;;5.45;2.22;;;17.30;99.90;;;;;;5071539;28;20098;-71
2021/08/26 05:10:47;;;;;;;5.82;2.25;;;17.20;99.90;;;;;;5070940;28;20047;-70
2021/08/26 05:13:51;;;;;;;7.32;3.03;;;17.20;99.90;;;;;;5071446;28;20047;-70
2021/08/26 05:16:58;;;;;;;6.95;2.25;;;16.90;99.90;;;;;;5071028;28;20047;-70
2021/08/26 05:20:03;;;;;;;4.35;2.60;;;16.70;99.90;;;;;;5071068;28;20047;-70
2021/08/26 05:23:08;;;;;;;5.18;2.22;;;16.70;99.90;;;;;;5070996;28;20049;-70
2021/08/26 05:26:13;;;;;;;2.92;2.25;;;17.80;99.90;;;;;;5070852;28;20521;-70
2021/08/26 05:29:17;;;;;;;6.80;2.65;;;19.90;99.90;;;;;;5070765;28;20048;-70
2021/08/26 05:32:22;;;;;;;8.02;2.20;;;21.00;99.90;;;;;;5070454;28;20509;-70
2021/08/26 05:35:27;;;;;;;7.95;2.70;;;21.60;99.90;;;;;;5070729;28;20490;-70
2021/08/26 05:38:32;;;;;;;7.97;2.03;;;22.50;99.90;;;;;;5071049;28;20055;-70
2021/08/26 05:41:36;;;;;;;8.32;2.17;;;22.90;99.90;;;;;;5069687;28;20064;-70
2021/08/26 05:44:40;;;;;;;3.85;2.17;;;23.10;99.50;;;;;;5070671;28;20051;-71
2021/08/26 05:47:44;;;;;;;4.63;2.00;;;23.80;98.30;;;;;;5070348;28;20498;-71
2021/08/26 05:50:48;;;;;;;5.20;2.15;;;25.20;96.50;;;;;;5070242;28;20044;-71
2021/08/26 05:53:52;;;;;;;8.05;2.80;;;25.50;95.10;;;;;;5070535;28;20051;-71
2021/08/26 05:56:58;;;;;;;6.13;2.33;;;25.90;94.50;;;;;;5070193;28;20038;-71
2021/08/26 06:00:03;;;;;;;5.13;2.10;;;26.50;93.50;;;;;;5069938;28;20047;-71
2021/08/26 06:03:16;;;;;;;8.20;2.75;;;27.30;92.30;;;;;;5069805;28;20391;-71
2021/08/26 06:06:20;;;;;;;7.05;2.25;;;26.30;92.40;;;;;;5057432;28;20501;-71
2021/08/26 06:09:24;;;;;;;8.73;2.10;;;28.20;91.10;;;;;;5070209;28;20490;-71
2021/08/26 06:12:28;;;;;;;3.63;2.00;;;29.40;88.30;;;;;;5069612;28;20265;-71
2021/08/26 06:15:32;;;;;;;6.20;2.25;;;30.10;84.00;;;;;;5070411;28;20047;-71
2021/08/26 06:18:37;;;;;;;5.97;2.22;;;28.90;85.10;;;;;;5070065;28;20047;-71
2021/08/26 06:21:41;;;;;;;6.72;2.17;;;29.60;83.70;;;;;;5069648;28;20501;-71
2021/08/26 06:24:45;;;;;;;4.20;1.77;;;29.90;82.30;;;;;;5070666;28;20043;-71
2021/08/26 06:27:49;;;;;;;5.93;2.20;;;28.90;81.00;;;;;;5069835;28;20059;-71
2021/08/26 06:30:53;;;;;;;6.88;2.55;;;28.40;82.50;;;;;;5068919;28;20051;-71
2021/08/26 06:33:58;;;;;;;7.55;2.10;;;29.00;81.30;;;;;;5070267;28;20490;-72
2021/08/26 06:37:03;;;;;;;2.63;1.88;;;28.20;82.50;;;;;;5069759;28;20052;-72
2021/08/26 06:40:08;;;;;;;4.03;2.00;;;27.50;83.80;;;;;;5069994;28;20043;-72
2021/08/26 06:43:12;;;;;;;3.30;1.48;;;28.30;83.60;;;;;;5069650;28;20040;-70
2021/08/26 06:46:16;;;;;;;4.03;1.50;;;29.80;81.00;;;;;;5070056;28;20040;-70
2021/08/26 06:49:22;;;;;;;2.47;1.40;;;30.70;78.20;;;;;;5070036;28;20044;-70
2021/08/26 06:52:28;;;;;;;4.28;1.50;;;31.80;76.90;;;;;;5069247;28;20044;-70
2021/08/26 06:55:32;;;;;;;3.40;1.80;;;31.90;74.70;;;;;;5070161;28;20046;-69
2021/08/26 06:58:36;;;;;;;3.25;1.45;;;31.90;73.40;;;;;;5069692;28;20044;-70
2021/08/26 07:01:41;;;;;;;6.47;1.52;;;32.30;72.90;;;;;;5069303;28;20044;-70
2021/08/26 07:04:44;;;;;;;6.00;1.88;;;31.80;73.50;;;;;;5069607;28;20040;-70
2021/08/26 07:07:49;;;;;;;4.43;1.83;;;29.70;74.20;;;;;;5069601;28;20040;-70
2021/08/26 07:10:53;;;;;;;6.35;2.10;;;29.80;75.70;;;;;;5056665;28;20390;-70
2021/08/26 07:13:58;;;;;;;3.60;1.73;;;28.30;76.90;;;;;;5069475;28;20036;-70
2021/08/26 07:17:04;;;;;;;3.25;1.50;;;28.40;77.50;;;;;;5072929;28;20043;-70
2021/08/26 07:20:09;;;;;;;6.25;2.03;;;28.50;78.30;;;;;;5073240;28;20040;-70
2021/08/26 07:23:13;;;;;;;3.35;1.85;;;27.60;80.50;;;;;;5072846;28;20048;-70
2021/08/26 07:26:19;;;;;;;6.85;1.80;;;28.80;78.40;;;;;;5073219;28;20039;-70
2021/08/26 07:29:23;;;;;;;6.68;1.98;;;29.90;77.20;;;;;;5072946;28;20036;-70
2021/08/26 07:32:27;;;;;;;3.55;1.65;;;29.80;76.20;;;;;;5072898;28;20403;-70
2021/08/26 07:35:32;;;;;;;5.22;2.30;;;31.10;74.70;;;;;;5073109;28;20418;-70
2021/08/26 07:38:36;;;;;;;2.25;1.20;;;32.70;72.10;;;;;;5072899;28;20044;-70
2021/08/26 07:41:40;;;;;;;4.03;1.50;;;34.30;69.90;;;;;;5072651;28;20039;-71
2021/08/26 07:44:44;;;;;;;6.28;1.52;;;35.60;67.20;;;;;;5073169;28;20036;-70
2021/08/26 07:47:48;;;;;;;4.25;1.35;;;36.40;65.70;;;;;;5075512;28;20036;-70
2021/08/26 07:50:53;;;;;;;2.75;1.50;;;37.10;64.50;;;;;;5072833;28;20044;-70
2021/08/26 07:53:58;;;;;;;4.43;1.40;;;37.70;62.40;;;;;;5072779;28;20039;-70
2021/08/26 07:57:04;;;;;;;2.53;1.23;;;38.10;61.50;;;;;;5072784;28;20043;-70
2021/08/26 08:00:08;;;;;;;3.30;1.38;;;37.40;60.90;;;;;;5072375;28;20502;-70
2021/08/26 08:03:13;;;;;;;3.40;1.38;;;37.10;61.20;;;;;;5072231;28;20047;-70
2021/08/26 08:06:18;;;;;;;2.08;1.10;;;37.00;60.80;;;;;;5060324;28;20048;-70
2021/08/26 08:09:22;;;;;;;2.42;1.30;;;33.80;62.70;;;;;;5072424;28;20064;-70
2021/08/26 08:12:26;;;;;;;5.47;1.40;;;32.20;65.20;;;;;;5072429;28;20047;-71
2021/08/26 08:15:31;;;;;;;4.68;1.35;;;33.10;64.50;;;;;;5072604;28;20059;-70
2021/08/26 08:18:35;;;;;;;2.55;1.02;;;33.00;65.20;;;;;;5072006;28;20051;-70
2021/08/26 08:21:39;;;;;;;4.28;1.27;;;32.40;64.90;;;;;;5071804;28;20498;-70
2021/08/26 08:24:43;;;;;;;2.30;1.20;;;35.20;62.80;;;;;;5072230;28;20048;-70
2021/08/26 08:27:47;;;;;;;3.38;1.20;;;37.50;60.20;;;;;;5071528;28;20485;-70
2021/08/26 08:30:51;;;;;;;4.32;1.10;;;36.70;58.70;;;;;;5071945;28;20048;-71
2021/08/26 08:33:56;;;;;;;4.05;0.90;;;35.30;60.00;;;;;;5071889;28;20055;-70
2021/08/26 08:37:02;;;;;;;2.80;0.98;;;37.10;58.50;;;;;;5071905;28;20067;-71
2021/08/26 08:40:07;;;;;;;1.83;1.25;;;38.10;57.60;;;;;;5071947;28;20043;-70
2021/08/26 08:43:11;;;;;;;1.98;0.90;;;37.10;57.10;;;;;;5071317;28;20044;-70
2021/08/26 08:46:18;;;;;;;3.78;0.95;;;38.30;56.70;;;;;;5071886;28;20039;-71
2021/08/26 08:49:23;;;;;;;3.60;0.70;;;39.50;55.70;;;;;;5071638;28;20048;-70
2021/08/26 08:52:27;;;;;;;1.33;0.60;;;39.20;53.30;;;;;;5071345;28;20047;-70
2021/08/26 08:55:32;;;;;;;1.02;0.60;;;40.70;51.60;;;;;;5071913;28;20063;-71
2021/08/26 08:58:41;;;;;;;4.43;0.90;;;38.00;52.10;;;;;;5071400;28;20052;-71
2021/08/26 09:01:53;;;;;;;5.13;1.55;;;34.80;56.80;;;;;;5071230;28;20051;-71
2021/08/26 09:04:59;;;;;;;1.75;0.80;;;37.60;55.10;;;;;;5071041;28;20387;-71
2021/08/26 09:08:09;;;;;;;1.48;0.70;;;40.40;53.30;;;;;;5071225;28;20044;-71
2021/08/26 09:11:20;;;;;;;1.95;0.80;;;42.30;51.40;;;;;;5058443;28;20039;-71
2021/08/26 09:14:27;;;;;;;2.00;0.82;;;43.50;50.50;;;;;;5071337;28;20044;-71
2021/08/26 09:17:30;;;;;;;6.60;0.98;;;43.50;50.40;;;;;;5070912;28;20402;-70
2021/08/26 09:20:46;;;;;;;0.90;0.50;;;43.20;49.90;;;;;;5071293;28;20498;-71
2021/08/26 09:24:00;;;;;;;4.88;0.60;;;44.40;49.30;;;;;;5070611;28;20059;-70
2021/08/26 09:27:04;;;;;;;2.30;0.50;;;45.80;47.70;;;;;;5070998;28;20040;-72
2021/08/26 09:30:08;;;;;;;2.33;0.70;;;46.10;46.10;;;;;;5070680;28;20044;-72
2021/08/26 09:33:12;;;;;;;0.75;0.60;;;46.90;46.00;;;;;;5070458;28;20195;-73
2021/08/26 09:36:32;;;;;;;1.15;0.50;;;47.90;45.70;;;;;;5070901;28;20047;-73
2021/08/26 09:39:37;;;;;;;2.28;0.50;;;48.40;44.30;;;;;;5070067;28;20035;-73
2021/08/26 09:42:41;;;;;;;2.70;0.50;;;49.40;43.60;;;;;;5070308;28;20052;-73
2021/08/26 09:45:49;;;;;;;1.50;0.30;;;50.20;42.50;;;;;;5070423;28;20537;-72
2021/08/26 09:49:08;;;;;;;0.77;0.40;;;49.90;41.40;;;;;;5070915;28;20048;-72
2021/08/26 09:52:17;;;;;;;1.33;0.60;;;50.30;42.60;;;;;;5070241;28;20036;-72
2021/08/26 09:55:22;;;;;;;2.90;1.30;;;50.20;42.40;;;;;;5070180;28;20537;-73
2021/08/26 09:58:28;;;;;;;5.63;1.55;;;47.30;42.70;;;;;;5070382;28;20362;-72
2021/08/26 10:01:37;;;;;;;3.17;0.70;;;47.10;44.10;;;;;;5070012;28;20043;-72
2021/08/26 10:04:42;;;;;;;1.90;0.77;;;46.60;44.70;;;;;;5070215;28;20399;-72
2021/08/26 10:07:47;;;;;;;1.27;0.60;;;37.00;49.40;;;;;;5070014;28;20051;-71
2021/08/26 10:10:53;;;;;;;2.25;0.80;;;40.60;49.80;;;;;;5069950;28;20497;-72
2021/08/26 10:13:58;;;;;;;2.25;0.80;;;41.60;47.90;;;;;;5070058;28;20048;-71
2021/08/26 10:17:02;;;;;;;1.63;0.70;;;44.80;46.80;;;;;;5070515;28;20039;-72
2021/08/26 10:20:08;;;;;;;1.75;0.70;;;45.60;46.70;;;;;;5070246;28;20723;-72
2021/08/26 10:23:14;;;;;;;2.92;0.80;;;46.40;46.20;;;;;;5070073;28;20394;-72
2021/08/26 10:26:20;;;;;;;1.73;0.80;;;45.50;46.30;;;;;;5070639;28;20047;-72
2021/08/26 10:29:25;;;;;;;2.25;0.70;;;47.60;45.50;;;;;;5070402;28;20419;-72
2021/08/26 10:32:29;;;;;;;1.50;0.85;;;48.90;45.00;;;;;;5070194;28;20047;-72
2021/08/26 10:35:56;;;;;;;1.63;0.60;;;49.30;44.30;;;;;;5070144;28;20047;-73
2021/08/26 10:39:33;;;;;;;2.58;0.70;;;48.80;44.00;;;;;;5069947;28;20047;-72
2021/08/26 10:42:43;;;;;;;2.08;0.73;;;45.60;44.50;;;;;;5069673;28;20051;-72
2021/08/26 10:45:50;;;;;;;5.13;0.68;;;45.90;46.00;;;;;;5069776;28;20111;-72
2021/08/26 10:49:03;;;;;;;1.20;0.70;;;47.30;45.00;;;;;;5046127;28;20039;-73
2021/08/26 10:52:09;;;;;;;1.77;0.70;;;45.70;45.80;;;;;;5073523;28;20051;-71
2021/08/26 10:55:27;;;;;;;7.07;0.90;;;45.10;45.60;;;;;;5073942;28;20055;-72
2021/08/26 10:58:37;;;;;;;3.92;1.00;;;43.40;47.40;;;;;;5073721;28;20055;-72
2021/08/26 11:01:44;;;;;;;2.33;1.00;;;44.40;46.70;;;;;;5073425;28;20043;-71
2021/08/26 11:04:49;;;;;;;3.08;1.05;;;44.10;47.20;;;;;;5073768;28;20052;-72
2021/08/26 11:07:53;;;;;;;2.00;0.90;;;45.10;46.40;;;;;;5073561;28;20059;-72
2021/08/26 11:11:18;;;;;;;2.38;1.25;;;44.20;46.40;;;;;;5073246;28;20044;-72
2021/08/26 11:14:25;;;;;;;1.77;0.80;;;44.50;46.60;;;;;;5073502;28;20043;-73
2021/08/26 11:17:31;;;;;;;1.42;0.70;;;46.30;45.50;;;;;;5073532;28;20418;-70
2021/08/26 11:20:42;;;;;;;3.03;0.90;;;44.80;44.50;;;;;;5073157;28;20053;-70
2021/08/26 11:23:47;;;;;;;1.33;0.80;;;42.90;46.80;;;;;;5073167;28;20501;-72
2021/08/26 11:27:16;;;;;;;4.25;0.73;;;43.40;46.00;;;;;;5073226;28;20035;-72
2021/08/26 11:30:24;;;;;;;4.20;0.70;;;45.30;45.30;;;;;;5073288;28;20031;-71
2021/08/26 11:33:28;;;;;;;10.20;1.50;;;44.30;44.90;;;;;;5073062;28;20043;-71
2021/08/26 11:36:32;;;;;;;3.50;0.80;;;39.80;46.50;;;;;;5073213;28;20043;-72
2021/08/26 11:39:49;;;;;;;2.65;0.90;;;40.20;48.00;;;;;;5073203;28;20051;-72
2021/08/26 11:42:54;;;;;;;10.68;1.65;;;43.00;46.60;;;;;;5072923;28;20043;-71
2021/08/26 11:45:59;;;;;;;0.70;0.70;;;42.70;45.60;;;;;;5071788;28;20040;-70
2021/08/26 11:49:05;;;;;;;1.40;0.75;;;40.60;44.70;;;;;;5072920;28;20044;-72
2021/08/26 11:52:12;;;;;;;2.80;0.70;;;40.30;47.70;;;;;;5072642;28;20048;-72
2021/08/26 11:55:16;;;;;;;1.38;0.82;;;40.60;47.80;;;;;;5072625;28;20052;-72
2021/08/26 11:58:22;;;;;;;0.90;0.70;;;40.70;48.20;;;;;;5072641;28;20044;-72
2021/08/26 12:01:25;;;;;;;2.83;0.73;;;42.70;47.00;;;;;;5071303;28;20055;-71
2021/08/26 12:04:36;;;;;;;5.88;1.60;;;44.50;45.40;;;;;;5072234;28;20052;-72
2021/08/26 12:07:45;;;;;;;3.55;1.00;;;44.20;45.40;;;;;;5072217;28;20048;-71
2021/08/26 12:10:51;;;;;;;3.42;0.90;;;43.90;45.60;;;;;;5072269;28;20044;-72
2021/08/26 12:14:05;;;;;;;1.60;0.77;;;45.10;45.10;;;;;;5072288;28;20055;-72
2021/08/26 12:17:19;;;;;;;1.55;0.77;;;46.10;44.60;;;;;;5072448;28;20485;-73
2021/08/26 12:20:25;;;;;;;1.50;0.93;;;47.10;43.90;;;;;;5072297;28;20048;-72
2021/08/26 12:23:32;;;;;;;1.35;0.70;;;42.80;45.90;;;;;;5072114;28;20040;-71
2021/08/26 12:26:38;;;;;;;2.72;0.77;;;41.90;45.70;;;;;;5072268;28;20087;-71
2021/08/26 12:29:44;;;;;;;2.05;0.73;;;36.10;49.60;;;;;;5072260;28;20047;-70
2021/08/26 12:32:48;;;;;;;2.75;1.00;;;35.30;50.90;;;;;;5059983;28;20048;-71
2021/08/26 12:35:57;;;;;;;1.35;0.80;;;36.40;50.10;;;;;;5071729;28;20042;-71
2021/08/26 12:39:01;;;;;;;2.55;1.08;;;40.00;48.60;;;;;;5072025;28;20040;-72
2021/08/26 12:42:08;;;;;;;6.70;1.25;;;42.20;46.50;;;;;;5071344;28;20043;-71
2021/08/26 12:45:19;;;;;;;2.30;1.00;;;40.10;46.80;;;;;;5072266;28;20055;-70
2021/08/26 12:48:32;;;;;;;1.65;1.10;;;36.90;48.30;;;;;;5059746;28;20047;-72
2021/08/26 12:51:56;;;;;;;2.72;1.00;;;33.00;52.30;;;;;;5071868;28;20032;-71
2021/08/26 12:55:01;;;;;;;3.55;1.02;;;33.10;54.00;;;;;;5072153;28;20039;-71
2021/08/26 12:58:14;;;;;;;1.23;0.90;;;36.00;51.90;;;;;;5071602;28;20043;-70
2021/08/26 13:01:23;;;;;;;2.58;1.10;;;37.50;50.20;;;;;;5070552;28;20060;-70
2021/08/26 13:04:28;;;;;;;2.60;0.90;;;38.80;49.30;;;;;;5051915;28;20044;-72
2021/08/26 13:07:33;;;;;;;11.77;1.17;;;39.20;48.50;;;;;;5038564;28;20407;-70
2021/08/26 13:10:39;;;;;;;3.30;0.98;;;39.80;48.30;;;;;;5046739;28;20031;-72
2021/08/26 13:13:53;;;;;;;3.15;1.05;;;40.70;47.90;;;;;;5070904;28;20044;-72
2021/08/26 13:16:58;;;;;;;5.20;1.00;;;39.90;46.50;;;;;;5066201;28;20048;-72
2021/08/26 13:20:03;;;;;;;6.40;1.00;;;37.40;49.60;;;;;;5057934;28;20045;-71
2021/08/26 13:23:09;;;;;;;2.97;1.13;;;37.40;49.00;;;;;;5050898;28;20490;-72
2021/08/26 13:26:13;;;;;;;1.52;0.98;;;38.40;48.40;;;;;;5050891;28;20044;-70
2021/08/26 13:29:17;;;;;;;2.20;1.00;;;37.10;48.30;;;;;;5051027;28;20052;-68
2021/08/26 13:32:24;;;;;;;1.80;1.10;;;33.50;51.20;;;;;;5038000;28;20387;-72
2021/08/26 13:35:31;;;;;;;3.10;1.00;;;35.60;49.70;;;;;;5051375;28;20052;-70
2021/08/26 13:38:36;;;;;;;1.60;0.98;;;36.30;48.40;;;;;;5066027;28;20054;-72
2021/08/26 13:41:42;;;;;;;3.05;1.20;;;37.10;48.80;;;;;;5090949;28;20490;-71
2021/08/26 13:44:51;;;;;;;;;;;37.40;48.50;;;;;;5091530;28;20043;-72
2021/08/26 13:47:55;;;;;;;4.35;1.15;;;37.90;48.20;;;;;;5091539;28;19919;-69
2021/08/26 13:51:00;;;;;;;1.88;1.00;;;38.00;48.20;;;;;;5069753;28;20067;-72
2021/08/26 13:54:05;;;;;;;3.75;1.02;;;38.50;47.60;;;;;;5071258;28;20051;-71
2021/08/26 13:57:09;;;;;;;3.38;1.20;;;38.60;47.70;;;;;;5069914;28;20055;-72
2021/08/26 14:00:14;;;;;;;11.50;1.73;;;38.40;49.50;;;;;;5039459;28;20051;-71
2021/08/26 14:03:19;;;;;;;7.45;1.13;;;38.10;50.60;;;;;;5050362;28;20051;-69
2021/08/26 14:06:23;;;;;;;4.38;0.98;;;37.60;51.30;;;;;;5050314;28;20414;-68
2021/08/26 14:09:27;;;;;;;3.80;1.23;;;35.50;52.70;;;;;;5050601;28;20391;-71
2021/08/26 14:12:31;;;;;;;4.78;1.60;;;34.70;54.30;;;;;;5049982;28;20047;-69
2021/08/26 14:15:35;;;;;;;2.95;1.20;;;34.50;54.50;;;;;;5050336;28;20502;-71
2021/08/26 14:18:39;;;;;;;4.70;1.10;;;33.80;54.80;;;;;;5050160;28;20040;-69
2021/08/26 14:21:44;;;;;;;13.30;1.58;;;33.40;56.00;;;;;;5049734;28;20043;-70
2021/08/26 14:24:48;;;;;;;8.38;1.30;;;33.30;56.50;;;;;;5049839;28;20399;-69
2021/08/26 14:27:52;;;;;;;4.30;1.35;;;33.50;56.80;;;;;;5049760;28;20036;-69
2021/08/26 14:30:57;;;;;;;4.15;1.10;;;33.70;56.70;;;;;;5049615;28;20043;-69
2021/08/26 14:34:01;;;;;;;4.07;1.00;;;33.50;57.30;;;;;;5049976;28;20051;-68
2021/08/26 14:37:07;;;;;;;3.78;1.08;;;33.00;57.50;;;;;;5049990;28;20051;-70
2021/08/26 14:40:11;;;;;;;3.03;1.23;;;33.10;58.40;;;;;;5050210;28;20510;-71
2021/08/26 14:43:15;;;;;;;3.95;1.30;;;33.60;58.10;;;;;;5037466;28;20079;-69
2021/08/26 14:46:19;;;;;;;3.00;1.02;;;33.60;57.90;;;;;;5049632;28;20498;-70
2021/08/26 14:49:25;;;;;;;2.13;1.15;;;33.10;58.60;;;;;;5049932;28;20048;-70
2021/08/26 14:52:30;;;;;;;4.35;1.20;;;32.60;59.00;;;;;;5049435;28;20040;-70
2021/08/26 14:55:34;;;;;;;1.85;1.20;;;32.40;59.40;;;;;;5049603;28;20052;-69
2021/08/26 14:58:38;;;;;;;8.13;1.10;;;32.40;59.60;;;;;;5049323;28;20052;-69
2021/08/26 15:01:43;;;;;;;6.18;1.63;;;31.80;60.50;;;;;;5049589;28;20048;-68
2021/08/26 15:04:48;;;;;;;6.18;1.13;;;32.00;60.70;;;;;;5049624;28;20052;-68
2021/08/26 15:07:52;;;;;;;1.42;1.10;;;31.90;60.10;;;;;;5049453;28;20498;-70
2021/08/26 15:10:56;;;;;;;6.78;1.23;;;31.90;59.90;;;;;;5049668;28;20040;-71
2021/08/26 15:14:00;;;;;;;8.30;1.77;;;32.20;60.40;;;;;;5049434;28;20044;-69
2021/08/26 15:17:04;;;;;;;2.55;1.50;;;32.30;60.00;;;;;;5049697;28;20045;-70
2021/08/26 15:20:10;;;;;;;2.70;1.38;;;31.30;60.50;;;;;;5049608;28;20047;-71
2021/08/26 15:23:14;;;;;;;2.75;1.45;;;30.60;61.50;;;;;;5049291;28;20044;-69
2021/08/26 15:26:18;;;;;;;3.67;1.40;;;30.90;61.90;;;;;;5049392;28;20394;-69
2021/08/26 15:29:22;;;;;;;2.53;1.00;;;31.30;61.50;;;;;;5049389;28;20494;-70
2021/08/26 15:32:29;;;;;;;4.38;1.20;;;31.50;60.80;;;;;;5049075;28;20399;-69
2021/08/26 15:35:49;;;;;;;3.47;1.20;;;31.50;60.70;;;;;;5049687;28;20037;-69
2021/08/26 15:38:56;;;;;;;4.38;1.17;;;31.40;60.50;;;;;;5052663;28;20052;-68
2021/08/26 15:42:01;;;;;;;2.03;1.23;;;30.90;60.90;;;;;;5053125;28;20091;-68
2021/08/26 15:45:10;;;;;;;6.15;1.17;;;30.30;61.00;;;;;;5052958;28;20056;-69
2021/08/26 15:48:16;;;;;;;9.55;1.20;;;29.70;62.00;;;;;;5052903;28;20399;-68
2021/08/26 15:51:24;;;;;;;2.80;1.35;;;29.50;63.20;;;;;;5052827;28;20052;-69
2021/08/26 15:55:05;;;;;;;1.80;1.10;;;29.60;63.70;;;;;;5040820;28;20044;-71
2021/08/26 16:01:15;;;;;;;8.27;1.70;;;29.80;64.00;;;;;;5052720;28;20068;-70
2021/08/26 16:04:19;;;;;;;2.45;1.13;;;29.70;63.80;;;;;;5052639;28;20044;-70
2021/08/26 16:07:23;;;;;;;2.85;1.10;;;29.50;64.00;;;;;;5052789;28;20048;-71
2021/08/26 16:10:28;;;;;;;3.50;1.20;;;29.30;64.40;;;;;;5052125;28;20491;-71
2021/08/26 16:13:33;;;;;;;3.72;1.50;;;29.20;64.50;;;;;;5052781;28;20530;-71
2021/08/26 16:16:38;;;;;;;4.53;1.10;;;29.00;64.60;;;;;;5051682;28;20048;-71
2021/08/26 16:19:42;;;;;;;5.88;1.45;;;28.90;64.70;;;;;;5052669;28;20044;-70